sensor_id;sensor_type;location;lat;lon;timestamp;pressure;altitude;pressure_sealevel;temperature;humidity
52653;BME280;39353;42.864;12.014;2022-09-09T00:08:04;97347.51;;;26.01;62.25
52653;BME280;39353;42.864;12.014;2022-09-09T00:10:39;97351.79;;;26.01;62.11
52653;BME280;39353;42.864;12.014;2022-09-09T00:13:37;97357.33;;;26.00;61.98
52653;BME280;39353;42.864;12.014;2022-09-09T00:16:26;97352.98;;;25.98;62.17
52653;BME280;39353;42.864;12.014;2022-09-09T00:24:51;97343.67;;;25.96;62.01
52653;BME280;39353;42.864;12.014;2022-09-09T00:27:46;97328.88;;;25.96;61.81
52653;BME280;39353;42.864;12.014;2022-09-09T00:30:31;97323.70;;;25.96;61.46
52653;BME280;39353;42.864;12.014;2022-09-09T00:33:11;97318.98;;;25.96;61.70
52653;BME280;39353;42.864;12.014;2022-09-09T00:36:00;97312.99;;;25.96;61.63
52653;BME280;39353;42.864;12.014;2022-09-09T00:38:34;97317.11;;;25.95;61.42
52653;BME280;39353;42.864;12.014;2022-09-09T00:44:32;97316.63;;;25.96;60.87
52653;BME280;39353;42.864;12.014;2022-09-09T00:47:46;97324.47;;;25.96;60.88
52653;BME280;39353;42.864;12.014;2022-09-09T00:58:24;97314.91;;;25.94;60.38
52653;BME280;39353;42.864;12.014;2022-09-09T01:00:57;97310.11;;;25.93;60.39
52653;BME280;39353;42.864;12.014;2022-09-09T01:03:53;97310.21;;;25.92;60.42
52653;BME280;39353;42.864;12.014;2022-09-09T01:06:36;97306.86;;;25.93;60.20
52653;BME280;39353;42.864;12.014;2022-09-09T01:12:14;97289.48;;;25.91;60.37
52653;BME280;39353;42.864;12.014;2022-09-09T01:17:35;97288.11;;;25.91;59.68
52653;BME280;39353;42.864;12.014;2022-09-09T01:20:28;97293.11;;;25.90;59.78
52653;BME280;39353;42.864;12.014;2022-09-09T01:26:13;97291.17;;;25.90;59.62
52653;BME280;39353;42.864;12.014;2022-09-09T01:28:57;97293.48;;;25.89;59.97
52653;BME280;39353;42.864;12.014;2022-09-09T01:31:39;97296.83;;;25.89;59.62
52653;BME280;39353;42.864;12.014;2022-09-09T01:34:12;97299.36;;;25.89;59.78
52653;BME280;39353;42.864;12.014;2022-09-09T01:37:03;97299.20;;;25.89;59.60
52653;BME280;39353;42.864;12.014;2022-09-09T01:39:35;97289.96;;;25.90;59.59
52653;BME280;39353;42.864;12.014;2022-09-09T01:42:20;97281.02;;;25.89;59.83
52653;BME280;39353;42.864;12.014;2022-09-09T01:45:01;97283.86;;;25.89;59.83
52653;BME280;39353;42.864;12.014;2022-09-09T01:47:45;97282.70;;;25.88;59.84
52653;BME280;39353;42.864;12.014;2022-09-09T01:50:20;97272.98;;;25.88;59.74
52653;BME280;39353;42.864;12.014;2022-09-09T01:53:03;97266.86;;;25.87;59.38
52653;BME280;39353;42.864;12.014;2022-09-09T01:55:54;97272.30;;;25.88;59.40
52653;BME280;39353;42.864;12.014;2022-09-09T01:58:57;97283.64;;;25.88;59.71
52653;BME280;39353;42.864;12.014;2022-09-09T02:04:48;97284.94;;;25.87;59.52
52653;BME280;39353;42.864;12.014;2022-09-09T02:07:48;97289.00;;;25.87;59.28
52653;BME280;39353;42.864;12.014;2022-09-09T02:11:06;97290.59;;;25.86;59.25
52653;BME280;39353;42.864;12.014;2022-09-09T02:14:24;97285.42;;;25.85;59.17
52653;BME280;39353;42.864;12.014;2022-09-09T02:17:15;97279.64;;;25.85;59.56
52653;BME280;39353;42.864;12.014;2022-09-09T02:20:52;97281.34;;;25.83;59.52
52653;BME280;39353;42.864;12.014;2022-09-09T02:23:36;97283.98;;;25.83;59.48
52653;BME280;39353;42.864;12.014;2022-09-09T02:26:11;97284.97;;;25.82;59.62
52653;BME280;39353;42.864;12.014;2022-09-09T02:28:42;97282.28;;;25.81;59.63
52653;BME280;39353;42.864;12.014;2022-09-09T02:31:25;97282.23;;;25.81;59.73
52653;BME280;39353;42.864;12.014;2022-09-09T02:33:58;97280.94;;;25.79;59.81
52653;BME280;39353;42.864;12.014;2022-09-09T02:36:44;97289.14;;;25.80;59.97
52653;BME280;39353;42.864;12.014;2022-09-09T02:39:26;97294.30;;;25.79;59.77
52653;BME280;39353;42.864;12.014;2022-09-09T02:41:54;97297.20;;;25.78;59.84
52653;BME280;39353;42.864;12.014;2022-09-09T02:44:42;97299.94;;;25.77;59.78
52653;BME280;39353;42.864;12.014;2022-09-09T02:47:25;97295.59;;;25.76;59.77
52653;BME280;39353;42.864;12.014;2022-09-09T02:54:24;97288.34;;;25.75;59.70
52653;BME280;39353;42.864;12.014;2022-09-09T02:56:39;97285.88;;;25.76;59.57
52653;BME280;39353;42.864;12.014;2022-09-09T02:59:24;97282.36;;;25.77;59.53
52653;BME280;39353;42.864;12.014;2022-09-09T03:01:53;97276.48;;;25.77;59.64
52653;BME280;39353;42.864;12.014;2022-09-09T03:04:34;97273.73;;;25.78;59.59
52653;BME280;39353;42.864;12.014;2022-09-09T03:07:01;97274.29;;;25.78;59.17
52653;BME280;39353;42.864;12.014;2022-09-09T03:09:44;97279.89;;;25.78;59.45
52653;BME280;39353;42.864;12.014;2022-09-09T03:12:25;97279.29;;;25.78;59.23
52653;BME280;39353;42.864;12.014;2022-09-09T03:14:52;97274.40;;;25.78;59.19
52653;BME280;39353;42.864;12.014;2022-09-09T03:17:34;97269.52;;;25.79;58.88
52653;BME280;39353;42.864;12.014;2022-09-09T03:20:14;97269.83;;;25.78;58.95
52653;BME280;39353;42.864;12.014;2022-09-09T03:22:42;97265.33;;;25.79;58.76
52653;BME280;39353;42.864;12.014;2022-09-09T03:25:26;97267.63;;;25.78;58.81
52653;BME280;39353;42.864;12.014;2022-09-09T03:27:56;97265.21;;;25.77;58.91
52653;BME280;39353;42.864;12.014;2022-09-09T03:30:38;97266.36;;;25.75;58.90
52653;BME280;39353;42.864;12.014;2022-09-09T03:33:19;97268.11;;;25.75;58.79
52653;BME280;39353;42.864;12.014;2022-09-09T03:36:02;97267.33;;;25.74;58.76
52653;BME280;39353;42.864;12.014;2022-09-09T03:38:44;97273.31;;;25.73;58.92
52653;BME280;39353;42.864;12.014;2022-09-09T03:41:26;97269.95;;;25.72;59.01
52653;BME280;39353;42.864;12.014;2022-09-09T03:44:09;97274.79;;;25.72;58.92
52653;BME280;39353;42.864;12.014;2022-09-09T03:46:53;97278.14;;;25.72;58.92
52653;BME280;39353;42.864;12.014;2022-09-09T03:49:20;97276.88;;;25.72;59.04
52653;BME280;39353;42.864;12.014;2022-09-09T03:52:02;97271.75;;;25.71;58.91
52653;BME280;39353;42.864;12.014;2022-09-09T03:54:30;97276.03;;;25.70;58.97
52653;BME280;39353;42.864;12.014;2022-09-09T03:56:58;97275.16;;;25.70;59.24
52653;BME280;39353;42.864;12.014;2022-09-09T03:59:39;97275.80;;;25.69;59.10
52653;BME280;39353;42.864;12.014;2022-09-09T04:02:21;97275.54;;;25.69;58.93
52653;BME280;39353;42.864;12.014;2022-09-09T04:05:02;97280.59;;;25.69;58.56
52653;BME280;39353;42.864;12.014;2022-09-09T04:07:45;97281.09;;;25.69;58.37
52653;BME280;39353;42.864;12.014;2022-09-09T04:10:12;97284.21;;;25.68;58.48
52653;BME280;39353;42.864;12.014;2022-09-09T04:12:41;97287.45;;;25.68;58.35
52653;BME280;39353;42.864;12.014;2022-09-09T04:15:08;97283.48;;;25.66;58.51
52653;BME280;39353;42.864;12.014;2022-09-09T04:17:38;97278.92;;;25.65;58.53
52653;BME280;39353;42.864;12.014;2022-09-09T04:20:05;97275.35;;;25.66;58.38
52653;BME280;39353;42.864;12.014;2022-09-09T04:22:33;97275.62;;;25.65;58.65
52653;BME280;39353;42.864;12.014;2022-09-09T04:25:15;97276.80;;;25.64;58.69
52653;BME280;39353;42.864;12.014;2022-09-09T04:27:57;97279.55;;;25.63;58.42
52653;BME280;39353;42.864;12.014;2022-09-09T04:30:27;97283.06;;;25.62;58.68
52653;BME280;39353;42.864;12.014;2022-09-09T04:32:54;97285.59;;;25.63;58.54
52653;BME280;39353;42.864;12.014;2022-09-09T04:35:21;97285.16;;;25.63;58.55
52653;BME280;39353;42.864;12.014;2022-09-09T04:38:05;97283.84;;;25.64;58.56
52653;BME280;39353;42.864;12.014;2022-09-09T04:40:50;97282.45;;;25.67;58.79
52653;BME280;39353;42.864;12.014;2022-09-09T04:43:20;97284.77;;;25.69;58.88
52653;BME280;39353;42.864;12.014;2022-09-09T04:45:50;97290.83;;;25.71;58.67
52653;BME280;39353;42.864;12.014;2022-09-09T04:48:18;97291.12;;;25.74;58.84
52653;BME280;39353;42.864;12.014;2022-09-09T04:50:54;97289.80;;;25.74;58.52
52653;BME280;39353;42.864;12.014;2022-09-09T04:53:36;97290.80;;;25.75;58.72
52653;BME280;39353;42.864;12.014;2022-09-09T04:56:20;97288.39;;;25.75;58.82
52653;BME280;39353;42.864;12.014;2022-09-09T04:58:58;97292.97;;;25.77;58.70
52653;BME280;39353;42.864;12.014;2022-09-09T05:01:41;97290.61;;;25.73;58.91
52653;BME280;39353;42.864;12.014;2022-09-09T05:04:09;97293.13;;;25.63;58.98
52653;BME280;39353;42.864;12.014;2022-09-09T05:06:49;97291.34;;;25.51;58.99
52653;BME280;39353;42.864;12.014;2022-09-09T05:09:17;97293.64;;;25.42;59.14
52653;BME280;39353;42.864;12.014;2022-09-09T05:11:59;97295.84;;;25.31;59.09
52653;BME280;39353;42.864;12.014;2022-09-09T05:14:32;97299.34;;;25.23;59.28
52653;BME280;39353;42.864;12.014;2022-09-09T05:17:00;97304.77;;;25.17;59.36
52653;BME280;39353;42.864;12.014;2022-09-09T05:19:42;97307.35;;;25.17;59.55
52653;BME280;39353;42.864;12.014;2022-09-09T05:22:24;97308.23;;;25.22;59.61
52653;BME280;39353;42.864;12.014;2022-09-09T05:24:52;97313.28;;;25.27;59.91
52653;BME280;39353;42.864;12.014;2022-09-09T05:27:19;97321.39;;;25.31;59.73
52653;BME280;39353;42.864;12.014;2022-09-09T05:29:49;97323.02;;;25.36;59.63
52653;BME280;39353;42.864;12.014;2022-09-09T05:32:18;97327.34;;;25.39;59.60
52653;BME280;39353;42.864;12.014;2022-09-09T05:34:47;97325.75;;;25.39;59.60
52653;BME280;39353;42.864;12.014;2022-09-09T05:37:31;97318.95;;;25.40;59.61
52653;BME280;39353;42.864;12.014;2022-09-09T05:39:58;97316.55;;;25.41;59.81
52653;BME280;39353;42.864;12.014;2022-09-09T05:42:31;97315.70;;;25.40;59.51
52653;BME280;39353;42.864;12.014;2022-09-09T05:44:59;97319.73;;;25.20;59.65
52653;BME280;39353;42.864;12.014;2022-09-09T05:47:29;97321.51;;;24.90;60.15
52653;BME280;39353;42.864;12.014;2022-09-09T05:49:56;97326.41;;;24.69;60.59
52653;BME280;39353;42.864;12.014;2022-09-09T05:52:23;97325.77;;;24.50;61.21
52653;BME280;39353;42.864;12.014;2022-09-09T05:54:52;97328.44;;;24.36;61.63
52653;BME280;39353;42.864;12.014;2022-09-09T05:57:34;97327.29;;;24.37;62.05
52653;BME280;39353;42.864;12.014;2022-09-09T06:00:16;97322.96;;;24.21;63.01
52653;BME280;39353;42.864;12.014;2022-09-09T06:02:50;97319.04;;;24.10;63.13
52653;BME280;39353;42.864;12.014;2022-09-09T06:05:34;97321.11;;;24.00;63.37
52653;BME280;39353;42.864;12.014;2022-09-09T06:08:02;97322.66;;;24.00;63.62
52653;BME280;39353;42.864;12.014;2022-09-09T06:10:43;97322.16;;;24.15;63.59
52653;BME280;39353;42.864;12.014;2022-09-09T06:13:25;97324.77;;;24.24;63.62
52653;BME280;39353;42.864;12.014;2022-09-09T06:16:12;97329.48;;;24.33;63.69
52653;BME280;39353;42.864;12.014;2022-09-09T06:18:56;97329.81;;;24.40;64.98
52653;BME280;39353;42.864;12.014;2022-09-09T06:21:30;97328.39;;;24.48;66.04
52653;BME280;39353;42.864;12.014;2022-09-09T06:24:00;97325.61;;;24.55;65.41
52653;BME280;39353;42.864;12.014;2022-09-09T06:26:33;97326.64;;;24.59;64.20
52653;BME280;39353;42.864;12.014;2022-09-09T06:29:14;97326.49;;;24.63;63.93
52653;BME280;39353;42.864;12.014;2022-09-09T06:31:42;97331.63;;;24.66;63.91
52653;BME280;39353;42.864;12.014;2022-09-09T06:34:21;97339.02;;;24.66;62.88
52653;BME280;39353;42.864;12.014;2022-09-09T06:37:06;97338.59;;;24.66;62.89
52653;BME280;39353;42.864;12.014;2022-09-09T06:39:51;97335.95;;;24.66;62.57
52653;BME280;39353;42.864;12.014;2022-09-09T06:42:18;97335.84;;;24.61;62.56
52653;BME280;39353;42.864;12.014;2022-09-09T06:44:59;97337.55;;;24.53;62.77
52653;BME280;39353;42.864;12.014;2022-09-09T06:47:37;97334.05;;;24.49;63.08
52653;BME280;39353;42.864;12.014;2022-09-09T06:50:05;97335.77;;;24.52;63.43
52653;BME280;39353;42.864;12.014;2022-09-09T06:52:48;97337.23;;;24.59;63.57
52653;BME280;39353;42.864;12.014;2022-09-09T06:55:29;97339.34;;;24.64;63.60
52653;BME280;39353;42.864;12.014;2022-09-09T06:57:56;97343.96;;;24.69;64.07
52653;BME280;39353;42.864;12.014;2022-09-09T07:00:24;97341.98;;;24.75;63.99
52653;BME280;39353;42.864;12.014;2022-09-09T07:02:53;97344.52;;;24.78;64.06
52653;BME280;39353;42.864;12.014;2022-09-09T07:05:36;97344.45;;;24.81;63.74
52653;BME280;39353;42.864;12.014;2022-09-09T07:08:18;97342.27;;;24.82;63.26
52653;BME280;39353;42.864;12.014;2022-09-09T07:11:04;97347.61;;;24.83;63.30
52653;BME280;39353;42.864;12.014;2022-09-09T07:13:34;97347.23;;;24.88;63.78
52653;BME280;39353;42.864;12.014;2022-09-09T07:16:17;97345.91;;;24.93;63.94
52653;BME280;39353;42.864;12.014;2022-09-09T07:18:45;97349.21;;;24.97;64.19
52653;BME280;39353;42.864;12.014;2022-09-09T07:21:14;97347.66;;;24.97;64.17
52653;BME280;39353;42.864;12.014;2022-09-09T07:23:41;97348.36;;;24.96;64.04
52653;BME280;39353;42.864;12.014;2022-09-09T07:26:29;97347.61;;;24.97;64.44
52653;BME280;39353;42.864;12.014;2022-09-09T07:28:57;97347.18;;;25.03;64.63
52653;BME280;39353;42.864;12.014;2022-09-09T07:31:39;97346.17;;;25.07;64.85
52653;BME280;39353;42.864;12.014;2022-09-09T07:34:09;97341.97;;;25.04;64.51
52653;BME280;39353;42.864;12.014;2022-09-09T07:36:50;97334.86;;;25.00;64.94
52653;BME280;39353;42.864;12.014;2022-09-09T07:39:18;97338.34;;;24.98;65.11
52653;BME280;39353;42.864;12.014;2022-09-09T07:42:04;97338.39;;;25.02;65.32
52653;BME280;39353;42.864;12.014;2022-09-09T07:44:32;97341.19;;;25.07;65.05
52653;BME280;39353;42.864;12.014;2022-09-09T07:47:18;97343.87;;;25.11;65.13
52653;BME280;39353;42.864;12.014;2022-09-09T07:49:48;97345.40;;;25.16;65.27
52653;BME280;39353;42.864;12.014;2022-09-09T07:52:19;97348.52;;;25.20;64.76
52653;BME280;39353;42.864;12.014;2022-09-09T07:55:01;97354.02;;;25.25;64.27
52653;BME280;39353;42.864;12.014;2022-09-09T07:57:48;97355.09;;;25.29;64.14
52653;BME280;39353;42.864;12.014;2022-09-09T08:00:29;97355.70;;;25.35;64.04
52653;BME280;39353;42.864;12.014;2022-09-09T08:02:56;97356.96;;;25.40;63.52
52653;BME280;39353;42.864;12.014;2022-09-09T08:05:37;97353.66;;;25.41;63.01
52653;BME280;39353;42.864;12.014;2022-09-09T08:08:20;97352.56;;;25.44;62.57
52653;BME280;39353;42.864;12.014;2022-09-09T08:10:47;97353.63;;;25.50;62.86
52653;BME280;39353;42.864;12.014;2022-09-09T08:13:29;97356.36;;;25.49;61.51
52653;BME280;39353;42.864;12.014;2022-09-09T08:16:17;97363.43;;;25.48;60.73
52653;BME280;39353;42.864;12.014;2022-09-09T08:18:45;97367.04;;;25.50;61.09
52653;BME280;39353;42.864;12.014;2022-09-09T08:21:31;97368.08;;;25.46;60.50
52653;BME280;39353;42.864;12.014;2022-09-09T08:24:13;97372.95;;;25.48;60.26
52653;BME280;39353;42.864;12.014;2022-09-09T08:27:47;97370.17;;;25.51;59.75
52653;BME280;39353;42.864;12.014;2022-09-09T08:30:14;97372.02;;;25.50;60.27
52653;BME280;39353;42.864;12.014;2022-09-09T08:32:55;97373.15;;;25.48;60.65
52653;BME280;39353;42.864;12.014;2022-09-09T08:35:37;97376.30;;;25.48;60.53
52653;BME280;39353;42.864;12.014;2022-09-09T08:38:18;97373.17;;;25.49;59.19
52653;BME280;39353;42.864;12.014;2022-09-09T08:40:50;97375.99;;;25.50;59.18
52653;BME280;39353;42.864;12.014;2022-09-09T08:43:22;97376.83;;;25.52;58.95
52653;BME280;39353;42.864;12.014;2022-09-09T08:46:04;97376.97;;;25.55;58.72
52653;BME280;39353;42.864;12.014;2022-09-09T08:49:06;97375.81;;;25.56;58.11
52653;BME280;39353;42.864;12.014;2022-09-09T08:51:39;97377.32;;;25.58;57.32
52653;BME280;39353;42.864;12.014;2022-09-09T08:54:20;97378.70;;;25.65;56.83
52653;BME280;39353;42.864;12.014;2022-09-09T08:56:48;97378.73;;;25.67;55.06
52653;BME280;39353;42.864;12.014;2022-09-09T08:59:18;97380.98;;;25.68;55.11
52653;BME280;39353;42.864;12.014;2022-09-09T09:05:23;97380.83;;;25.74;53.92
52653;BME280;39353;42.864;12.014;2022-09-09T09:11:02;97383.52;;;25.80;53.92
52653;BME280;39353;42.864;12.014;2022-09-09T09:16:56;97385.22;;;25.68;54.40
52653;BME280;39353;42.864;12.014;2022-09-09T09:19:40;97378.58;;;25.68;54.54
52653;BME280;39353;42.864;12.014;2022-09-09T09:22:19;97375.77;;;25.74;55.59
52653;BME280;39353;42.864;12.014;2022-09-09T09:24:55;97374.93;;;25.79;56.39
52653;BME280;39353;42.864;12.014;2022-09-09T09:30:19;97378.20;;;25.81;55.77
52653;BME280;39353;42.864;12.014;2022-09-09T09:33:13;97382.32;;;25.81;56.79
52653;BME280;39353;42.864;12.014;2022-09-09T09:35:41;97378.38;;;25.86;56.51
52653;BME280;39353;42.864;12.014;2022-09-09T09:38:26;97377.58;;;25.88;56.46
52653;BME280;39353;42.864;12.014;2022-09-09T09:40:58;97372.77;;;25.90;55.08
52653;BME280;39353;42.864;12.014;2022-09-09T09:43:41;97373.30;;;25.90;53.94
52653;BME280;39353;42.864;12.014;2022-09-09T09:46:29;97371.27;;;25.88;54.34
52653;BME280;39353;42.864;12.014;2022-09-09T09:49:04;97365.42;;;25.87;52.15
52653;BME280;39353;42.864;12.014;2022-09-09T09:51:37;97367.67;;;25.86;51.52
52653;BME280;39353;42.864;12.014;2022-09-09T09:56:54;97362.02;;;25.87;49.81
52653;BME280;39353;42.864;12.014;2022-09-09T09:59:37;97357.05;;;25.92;49.88
52653;BME280;39353;42.864;12.014;2022-09-09T10:02:22;97353.46;;;25.97;49.49
52653;BME280;39353;42.864;12.014;2022-09-09T10:05:26;97349.75;;;26.01;49.96
52653;BME280;39353;42.864;12.014;2022-09-09T10:08:13;97349.92;;;26.01;47.59
52653;BME280;39353;42.864;12.014;2022-09-09T10:17:08;97344.77;;;26.05;49.45
52653;BME280;39353;42.864;12.014;2022-09-09T10:23:01;97344.34;;;26.18;49.89
52653;BME280;39353;42.864;12.014;2022-09-09T10:31:36;97337.48;;;26.22;51.20
52653;BME280;39353;42.864;12.014;2022-09-09T10:42:50;97334.39;;;26.37;52.28
52653;BME280;39353;42.864;12.014;2022-09-09T10:45:27;97335.84;;;26.40;51.72
52653;BME280;39353;42.864;12.014;2022-09-09T10:48:10;97333.27;;;26.43;51.72
52653;BME280;39353;42.864;12.014;2022-09-09T10:57:42;97334.18;;;26.60;53.00
52653;BME280;39353;42.864;12.014;2022-09-09T11:00:24;97332.11;;;26.67;53.62
52653;BME280;39353;42.864;12.014;2022-09-09T11:03:20;97330.00;;;26.72;54.00
52653;BME280;39353;42.864;12.014;2022-09-09T11:06:16;97324.88;;;26.74;53.61
52653;BME280;39353;42.864;12.014;2022-09-09T11:08:47;97322.73;;;26.75;54.28
52653;BME280;39353;42.864;12.014;2022-09-09T11:11:47;97323.02;;;26.78;53.32
52653;BME280;39353;42.864;12.014;2022-09-09T11:17:26;97322.36;;;26.82;50.49
52653;BME280;39353;42.864;12.014;2022-09-09T11:19:56;97320.33;;;26.78;50.06
52653;BME280;39353;42.864;12.014;2022-09-09T11:22:44;97317.23;;;26.74;49.21
52653;BME280;39353;42.864;12.014;2022-09-09T11:25:33;97316.52;;;26.73;48.10
52653;BME280;39353;42.864;12.014;2022-09-09T11:42:15;97326.09;;;26.72;40.55
52653;BME280;39353;42.864;12.014;2022-09-09T11:44:43;97330.36;;;26.70;40.45
52653;BME280;39353;42.864;12.014;2022-09-09T11:47:36;97333.39;;;26.69;40.26
52653;BME280;39353;42.864;12.014;2022-09-09T11:50:28;97334.10;;;26.68;40.18
52653;BME280;39353;42.864;12.014;2022-09-09T11:53:20;97339.44;;;26.68;39.35
52653;BME280;39353;42.864;12.014;2022-09-09T11:56:11;97336.31;;;26.69;39.58
52653;BME280;39353;42.864;12.014;2022-09-09T11:58:43;97339.23;;;26.72;39.33
52653;BME280;39353;42.864;12.014;2022-09-09T12:01:35;97342.05;;;26.72;39.30
52653;BME280;39353;42.864;12.014;2022-09-09T12:09:46;97349.91;;;26.72;39.83
52653;BME280;39353;42.864;12.014;2022-09-09T12:12:35;97345.25;;;26.75;40.95
52653;BME280;39353;42.864;12.014;2022-09-09T12:15:27;97349.05;;;26.77;40.96
52653;BME280;39353;42.864;12.014;2022-09-09T12:18:25;97343.92;;;26.81;40.49
52653;BME280;39353;42.864;12.014;2022-09-09T12:24:09;97345.83;;;26.87;40.01
52653;BME280;39353;42.864;12.014;2022-09-09T12:30:07;97344.67;;;26.90;39.29
52653;BME280;39353;42.864;12.014;2022-09-09T12:32:36;97341.10;;;26.91;39.50
52653;BME280;39353;42.864;12.014;2022-09-09T12:35:22;97348.15;;;26.94;39.60
52653;BME280;39353;42.864;12.014;2022-09-09T12:38:14;97348.33;;;26.94;40.58
52653;BME280;39353;42.864;12.014;2022-09-09T12:40:57;97352.90;;;26.98;40.44
52653;BME280;39353;42.864;12.014;2022-09-09T12:43:26;97347.68;;;26.98;40.93
52653;BME280;39353;42.864;12.014;2022-09-09T12:46:08;97347.75;;;27.00;40.83
52653;BME280;39353;42.864;12.014;2022-09-09T12:48:51;97341.97;;;27.03;40.33
52653;BME280;39353;42.864;12.014;2022-09-09T12:51:34;97344.02;;;27.04;39.96
52653;BME280;39353;42.864;12.014;2022-09-09T12:54:15;97347.65;;;27.06;40.41
52653;BME280;39353;42.864;12.014;2022-09-09T12:57:00;97348.98;;;27.08;40.53
52653;BME280;39353;42.864;12.014;2022-09-09T12:59:36;97346.85;;;27.11;41.27
52653;BME280;39353;42.864;12.014;2022-09-09T13:02:25;97347.39;;;27.10;40.90
52653;BME280;39353;42.864;12.014;2022-09-09T13:04:53;97351.23;;;27.06;40.67
52653;BME280;39353;42.864;12.014;2022-09-09T13:07:21;97344.35;;;27.06;40.18
52653;BME280;39353;42.864;12.014;2022-09-09T13:10:02;97345.06;;;27.05;41.10
52653;BME280;39353;42.864;12.014;2022-09-09T13:12:43;97340.15;;;27.02;41.63
52653;BME280;39353;42.864;12.014;2022-09-09T13:15:28;97341.30;;;27.00;41.20
52653;BME280;39353;42.864;12.014;2022-09-09T13:18:00;97343.48;;;26.94;41.57
52653;BME280;39353;42.864;12.014;2022-09-09T13:20:48;97346.17;;;26.93;41.29
52653;BME280;39353;42.864;12.014;2022-09-09T13:23:34;97336.76;;;26.93;42.15
52653;BME280;39353;42.864;12.014;2022-09-09T13:26:05;97327.37;;;27.02;42.61
52653;BME280;39353;42.864;12.014;2022-09-09T13:28:48;97338.61;;;27.05;42.27
52653;BME280;39353;42.864;12.014;2022-09-09T13:31:33;97334.37;;;27.05;42.06
52653;BME280;39353;42.864;12.014;2022-09-09T13:34:29;97335.27;;;27.07;42.39
52653;BME280;39353;42.864;12.014;2022-09-09T13:37:33;97341.70;;;27.06;42.25
52653;BME280;39353;42.864;12.014;2022-09-09T13:40:03;97341.92;;;27.06;42.78
52653;BME280;39353;42.864;12.014;2022-09-09T13:42:46;97341.64;;;27.06;43.28
52653;BME280;39353;42.864;12.014;2022-09-09T13:45:25;97337.41;;;27.06;43.36
52653;BME280;39353;42.864;12.014;2022-09-09T13:48:10;97342.88;;;27.09;43.31
52653;BME280;39353;42.864;12.014;2022-09-09T13:51:00;97341.77;;;27.09;43.81
52653;BME280;39353;42.864;12.014;2022-09-09T13:53:28;97346.63;;;27.09;43.85
52653;BME280;39353;42.864;12.014;2022-09-09T13:56:09;97346.13;;;27.09;43.58
52653;BME280;39353;42.864;12.014;2022-09-09T13:58:36;97347.87;;;27.07;43.52
52653;BME280;39353;42.864;12.014;2022-09-09T14:01:17;97342.58;;;27.06;43.13
52653;BME280;39353;42.864;12.014;2022-09-09T14:03:58;97341.98;;;27.07;43.37
52653;BME280;39353;42.864;12.014;2022-09-09T14:06:40;97335.33;;;27.07;43.46
52653;BME280;39353;42.864;12.014;2022-09-09T14:09:11;97340.60;;;27.07;43.25
52653;BME280;39353;42.864;12.014;2022-09-09T14:11:52;97338.39;;;27.04;42.90
52653;BME280;39353;42.864;12.014;2022-09-09T14:14:35;97335.25;;;27.00;42.95
52653;BME280;39353;42.864;12.014;2022-09-09T14:17:02;97334.20;;;26.99;42.88
52653;BME280;39353;42.864;12.014;2022-09-09T14:19:44;97335.89;;;26.96;43.14
52653;BME280;39353;42.864;12.014;2022-09-09T14:22:26;97335.64;;;27.05;42.35
52653;BME280;39353;42.864;12.014;2022-09-09T14:24:55;97335.83;;;27.11;41.99
52653;BME280;39353;42.864;12.014;2022-09-09T14:27:22;97337.05;;;27.16;41.98
52653;BME280;39353;42.864;12.014;2022-09-09T14:29:49;97342.00;;;27.17;42.00
52653;BME280;39353;42.864;12.014;2022-09-09T14:32:16;97342.82;;;27.16;42.56
52653;BME280;39353;42.864;12.014;2022-09-09T14:34:57;97347.25;;;27.22;42.82
52653;BME280;39353;42.864;12.014;2022-09-09T14:37:38;97348.50;;;27.18;42.71
52653;BME280;39353;42.864;12.014;2022-09-09T14:40:20;97353.29;;;27.16;43.12
52653;BME280;39353;42.864;12.014;2022-09-09T14:43:01;97347.96;;;27.20;42.96
52653;BME280;39353;42.864;12.014;2022-09-09T14:45:43;97352.70;;;27.20;43.02
52653;BME280;39353;42.864;12.014;2022-09-09T14:48:11;97353.52;;;27.19;42.74
52653;BME280;39353;42.864;12.014;2022-09-09T14:53:34;97353.13;;;27.11;42.88
52653;BME280;39353;42.864;12.014;2022-09-09T14:56:13;97356.48;;;27.09;43.03
52653;BME280;39353;42.864;12.014;2022-09-09T15:03:03;97361.69;;;27.00;43.29
52653;BME280;39353;42.864;12.014;2022-09-09T15:05:30;97362.39;;;26.98;43.52
52653;BME280;39353;42.864;12.014;2022-09-09T15:08:12;97361.90;;;27.02;44.11
52653;BME280;39353;42.864;12.014;2022-09-09T15:11:05;97356.39;;;27.01;43.81
52653;BME280;39353;42.864;12.014;2022-09-09T15:13:51;97355.02;;;27.00;44.01
52653;BME280;39353;42.864;12.014;2022-09-09T15:16:22;97351.77;;;26.99;44.17
52653;BME280;39353;42.864;12.014;2022-09-09T15:19:03;97356.27;;;26.96;44.45
52653;BME280;39353;42.864;12.014;2022-09-09T15:21:34;97359.23;;;26.95;44.46
52653;BME280;39353;42.864;12.014;2022-09-09T15:24:03;97360.11;;;26.96;43.95
52653;BME280;39353;42.864;12.014;2022-09-09T15:26:31;97360.21;;;26.93;44.39
52653;BME280;39353;42.864;12.014;2022-09-09T15:28:58;97359.27;;;26.90;44.06
52653;BME280;39353;42.864;12.014;2022-09-09T15:31:30;97355.41;;;26.88;42.94
52653;BME280;39353;42.864;12.014;2022-09-09T15:34:00;97351.70;;;26.83;43.34
52653;BME280;39353;42.864;12.014;2022-09-09T15:36:31;97356.79;;;26.79;43.65
52653;BME280;39353;42.864;12.014;2022-09-09T15:39:15;97359.39;;;26.77;43.80
52653;BME280;39353;42.864;12.014;2022-09-09T15:41:47;97360.17;;;26.76;43.80
52653;BME280;39353;42.864;12.014;2022-09-09T15:44:29;97361.31;;;26.74;43.80
52653;BME280;39353;42.864;12.014;2022-09-09T15:47:12;97359.21;;;26.69;44.09
52653;BME280;39353;42.864;12.014;2022-09-09T15:49:39;97358.77;;;26.68;43.82
52653;BME280;39353;42.864;12.014;2022-09-09T15:52:20;97359.95;;;26.66;43.59
52653;BME280;39353;42.864;12.014;2022-09-09T15:54:47;97357.69;;;26.63;43.63